createdAt,value
2019-04-06T00:00:12.595Z,49.10
2019-04-06T00:02:41.311Z,49.23
2019-04-06T00:05:11.423Z,54.27
2019-04-06T00:07:40.009Z,50.00
2019-04-06T00:10:09.426Z,54.70
2019-04-06T00:12:38.140Z,55.33
2019-04-06T00:15:07.549Z,50.45
2019-04-06T00:17:36.164Z,49.77
2019-04-06T00:20:06.394Z,52.25
2019-04-06T00:22:35.247Z,55.23
2019-04-06T00:25:05.189Z,55.70
2019-04-06T00:27:33.939Z,51.10
2019-04-06T00:30:02.641Z,47.80
2019-04-06T00:32:35.679Z,54.25
2019-04-06T00:35:05.050Z,55.33
2019-04-06T00:37:33.588Z,55.33
2019-04-06T00:40:02.216Z,54.30
2019-04-06T00:42:30.823Z,58.83
2019-04-06T00:44:59.459Z,54.30
2019-04-06T00:47:27.979Z,56.60
2019-04-06T00:49:56.760Z,53.02
2019-04-06T00:52:25.426Z,58.35
2019-04-06T00:54:54.052Z,54.98
2019-04-06T00:57:22.613Z,58.23
2019-04-06T00:59:51.140Z,58.25
2019-04-06T01:02:19.773Z,55.75
2019-04-06T01:04:48.647Z,56.37
2019-04-06T01:07:17.207Z,56.00
2019-04-06T01:09:46.093Z,54.88
2019-04-06T01:12:14.731Z,58.17
2019-04-06T01:14:43.288Z,60.00
2019-04-06T01:17:11.853Z,52.85
2019-04-06T01:19:40.568Z,61.95
2019-04-06T01:22:09.252Z,55.12
2019-04-06T01:24:37.846Z,59.65
2019-04-06T01:27:06.574Z,54.08
2019-04-06T01:29:35.063Z,51.90
2019-04-06T01:32:03.646Z,56.58
2019-04-06T01:34:32.211Z,55.00
2019-04-06T01:37:01.125Z,56.85
2019-04-06T01:39:29.613Z,49.13
2019-04-06T01:41:58.288Z,53.38
2019-04-06T01:44:26.812Z,50.90
2019-04-06T01:46:55.487Z,53.17
2019-04-06T01:49:24.091Z,50.25
2019-04-06T01:51:52.642Z,55.78
2019-04-06T01:54:21.162Z,55.45
2019-04-06T01:56:49.774Z,53.90
2019-04-06T01:59:18.258Z,53.28
2019-04-06T02:02:04.755Z,52.58
2019-04-06T02:04:33.399Z,54.27
2019-04-06T02:07:02.019Z,55.25
2019-04-06T02:09:30.781Z,53.65
2019-04-06T02:11:59.415Z,56.40
2019-04-06T02:14:28.095Z,55.52
2019-04-06T02:16:56.701Z,58.17
2019-04-06T02:19:25.389Z,60.23
2019-04-06T02:21:54.097Z,60.10
2019-04-06T02:24:22.716Z,63.42
2019-04-06T02:26:51.475Z,60.40
2019-04-06T02:29:19.969Z,59.27
2019-04-06T02:31:56.305Z,59.70
2019-04-06T02:34:28.991Z,64.05
2019-04-06T02:37:13.956Z,61.55
2019-04-06T02:39:50.243Z,57.30
2019-04-06T02:42:20.475Z,55.45
2019-04-06T02:44:49.239Z,58.10
2019-04-06T02:47:17.989Z,60.40
2019-04-06T02:49:46.711Z,60.63
2019-04-06T02:52:15.343Z,60.17
2019-04-06T02:54:44.059Z,61.50
2019-04-06T02:57:12.745Z,61.73
2019-04-06T02:59:41.374Z,63.85
2019-04-06T03:02:09.942Z,57.83
2019-04-06T03:04:38.777Z,58.58
2019-04-06T03:07:07.748Z,61.80
2019-04-06T03:09:37.892Z,58.42
2019-04-06T03:12:06.527Z,56.23
2019-04-06T03:14:35.190Z,59.77
2019-04-06T03:17:03.897Z,56.13
2019-04-06T03:19:32.666Z,59.75
2019-04-06T03:22:01.185Z,59.63
2019-04-06T03:24:29.820Z,59.88
2019-04-06T03:27:01.988Z,59.63
2019-04-06T03:29:28.934Z,62.67
2019-04-06T03:31:57.654Z,59.05
2019-04-06T03:34:26.208Z,59.40
2019-04-06T03:36:55.089Z,60.25
2019-04-06T03:39:23.697Z,58.35
2019-04-06T03:41:52.317Z,61.28
2019-04-06T03:44:21.066Z,67.95
2019-04-06T03:46:49.557Z,60.05
2019-04-06T03:49:18.115Z,60.17
2019-04-06T03:51:46.625Z,52.65
2019-04-06T03:54:15.281Z,59.10
2019-04-06T03:56:44.013Z,61.08
2019-04-06T03:59:12.657Z,57.00
2019-04-06T04:01:41.268Z,55.00
2019-04-06T04:04:09.854Z,58.05
2019-04-06T04:06:38.418Z,53.42
2019-04-06T04:09:07.110Z,55.17
2019-04-06T04:11:35.763Z,57.23
2019-04-06T04:14:06.197Z,53.65
2019-04-06T04:16:34.787Z,57.95
2019-04-06T04:19:03.552Z,55.92
2019-04-06T04:21:32.179Z,56.25
2019-04-06T04:24:00.739Z,57.62
2019-04-06T04:26:29.383Z,56.05
2019-04-06T04:28:58.026Z,61.02
2019-04-06T04:31:26.585Z,57.93
2019-04-06T04:33:55.165Z,56.23
2019-04-06T04:36:23.722Z,63.55
2019-04-06T04:38:52.486Z,59.42
2019-04-06T04:41:21.202Z,61.25
2019-04-06T04:43:49.861Z,58.85
2019-04-06T04:46:18.379Z,60.80
2019-04-06T04:48:46.852Z,61.13
2019-04-06T04:51:15.485Z,60.38
2019-04-06T04:53:44.067Z,56.73
2019-04-06T04:56:12.559Z,55.63
2019-04-06T04:58:41.216Z,52.23
2019-04-06T05:01:09.838Z,54.40
2019-04-06T05:03:38.427Z,58.45
2019-04-06T05:06:07.019Z,54.98
2019-04-06T05:08:35.642Z,57.83
2019-04-06T05:11:05.730Z,53.00
2019-04-06T05:13:34.782Z,53.28
2019-04-06T05:16:10.995Z,53.75
2019-04-06T05:18:40.590Z,52.00
2019-04-06T05:21:09.212Z,53.68
2019-04-06T05:23:37.715Z,53.55
2019-04-06T05:26:06.809Z,57.58
2019-04-06T05:28:35.464Z,52.75
2019-04-06T05:31:04.092Z,54.93
2019-04-06T05:33:32.573Z,56.05
2019-04-06T05:36:01.288Z,54.38
2019-04-06T05:38:29.843Z,56.95
2019-04-06T05:40:58.657Z,52.58
2019-04-06T05:43:27.185Z,53.33
2019-04-06T05:45:55.734Z,47.62
2019-04-06T05:48:24.352Z,48.92
2019-04-06T05:50:52.902Z,53.00
2019-04-06T05:53:21.492Z,50.25
2019-04-06T05:55:50.251Z,50.15
2019-04-06T05:58:18.797Z,51.80
2019-04-06T06:00:47.299Z,51.15
2019-04-06T06:03:15.962Z,51.25
2019-04-06T06:05:44.645Z,52.30
2019-04-06T06:08:13.131Z,50.28
2019-04-06T06:10:41.758Z,48.20
2019-04-06T06:13:10.419Z,49.88
2019-04-06T06:15:39.043Z,46.90
2019-04-06T06:18:07.672Z,46.48
2019-04-06T06:20:36.268Z,47.30
2019-04-06T06:23:04.894Z,48.42
2019-04-06T06:25:33.757Z,48.40
2019-04-06T06:28:13.327Z,43.15
2019-04-06T06:30:32.624Z,46.10
2019-04-06T06:33:01.263Z,50.70
2019-04-06T06:35:29.884Z,46.30
2019-04-06T06:37:58.565Z,45.95
2019-04-06T06:40:27.125Z,46.42
2019-04-06T06:42:55.724Z,48.20
2019-04-06T06:45:24.362Z,45.90
2019-04-06T06:47:52.925Z,52.78
2019-04-06T06:50:21.511Z,44.98
2019-04-06T06:52:50.203Z,46.40
2019-04-06T06:55:18.749Z,43.55
2019-04-06T06:57:47.347Z,45.58
2019-04-06T07:00:16.140Z,43.00
2019-04-06T07:02:44.770Z,43.45
2019-04-06T07:05:13.584Z,42.43
2019-04-06T07:07:42.160Z,43.48
2019-04-06T07:10:11.070Z,47.90
2019-04-06T07:12:39.719Z,50.98
2019-04-06T07:15:09.154Z,48.02
2019-04-06T07:17:37.820Z,45.20
2019-04-06T07:20:08.312Z,44.40
2019-04-06T07:22:36.817Z,48.63
2019-04-06T07:25:06.512Z,47.65
2019-04-06T07:27:35.152Z,43.00
2019-04-06T07:30:05.980Z,44.80
2019-04-06T07:32:34.649Z,44.75
2019-04-06T07:35:03.780Z,44.70
2019-04-06T07:37:32.364Z,46.37
2019-04-06T07:40:00.872Z,48.17
2019-04-06T07:42:29.421Z,44.63
2019-04-06T07:44:57.935Z,46.08
2019-04-06T07:47:26.508Z,47.13
2019-04-06T07:49:55.060Z,48.92
2019-04-06T07:52:23.645Z,49.08
2019-04-06T07:54:52.274Z,46.55
2019-04-06T07:57:21.043Z,45.23
2019-04-06T07:59:49.661Z,48.63
2019-04-06T08:02:18.347Z,47.45
2019-04-06T08:04:47.057Z,45.73
2019-04-06T08:07:15.842Z,47.03
2019-04-06T08:09:44.580Z,47.17
2019-04-06T08:12:13.828Z,45.23
2019-04-06T08:14:42.341Z,45.73
2019-04-06T08:17:11.066Z,50.08
2019-04-06T08:19:39.631Z,46.70
2019-04-06T08:22:08.283Z,45.43
2019-04-06T08:24:36.794Z,49.65
2019-04-06T08:27:06.487Z,46.77
2019-04-06T08:29:35.137Z,43.80
2019-04-06T08:32:03.785Z,44.35
2019-04-06T08:34:32.441Z,48.35
2019-04-06T08:37:01.164Z,47.85
2019-04-06T08:39:29.773Z,50.15
2019-04-06T08:41:58.290Z,50.15
2019-04-06T08:44:26.895Z,47.55
2019-04-06T08:46:55.509Z,49.00
2019-04-06T08:49:24.154Z,47.15
2019-04-06T08:51:52.854Z,50.70
2019-04-06T08:54:21.402Z,49.50
2019-04-06T08:56:50.032Z,49.40
2019-04-06T08:59:18.610Z,51.58
2019-04-06T09:01:47.098Z,51.80
2019-04-06T09:04:15.815Z,49.40
2019-04-06T09:06:44.463Z,51.45
2019-04-06T09:09:13.270Z,51.83
2019-04-06T09:11:41.784Z,53.60
2019-04-06T09:14:10.413Z,49.20
2019-04-06T09:16:39.040Z,48.15
2019-04-06T09:19:07.619Z,58.28
2019-04-06T09:21:36.397Z,64.03
2019-04-06T09:24:05.137Z,68.75
2019-04-06T09:26:33.764Z,61.50
2019-04-06T09:29:02.317Z,53.48
2019-04-06T09:31:30.973Z,50.90
2019-04-06T09:33:59.478Z,54.73
2019-04-06T09:36:28.177Z,47.20
2019-04-06T09:38:56.769Z,44.88
2019-04-06T09:41:26.324Z,45.38
2019-04-06T09:43:55.278Z,44.27
2019-04-06T09:46:43.643Z,40.67
2019-04-06T09:49:28.734Z,39.27
2019-04-06T09:51:58.987Z,36.53
2019-04-06T09:54:43.807Z,36.53
2019-04-06T09:57:14.045Z,33.15
2019-04-06T09:59:56.233Z,32.03
2019-04-06T10:02:38.124Z,29.45
2019-04-06T10:05:17.860Z,30.72
2019-04-06T10:07:48.066Z,31.23
2019-04-06T10:10:24.221Z,28.67
2019-04-06T10:12:57.278Z,27.70
2019-04-06T10:15:43.263Z,27.37
2019-04-06T10:18:22.531Z,27.50
2019-04-06T10:21:08.656Z,26.60
2019-04-06T10:23:38.857Z,26.87
2019-04-06T10:26:09.149Z,23.42
2019-04-06T10:28:54.007Z,26.48
2019-04-06T10:31:42.004Z,25.62
2019-04-06T10:34:28.032Z,23.90
2019-04-06T10:36:58.271Z,24.20
2019-04-06T10:39:31.080Z,26.27
2019-04-06T10:42:07.105Z,22.80
2019-04-06T10:44:37.434Z,24.37
2019-04-06T10:47:07.807Z,24.43
2019-04-06T10:49:41.208Z,24.25
2019-04-06T10:52:29.376Z,21.80
2019-04-06T10:55:15.577Z,22.32
2019-04-06T10:57:51.871Z,22.87
2019-04-06T11:00:22.087Z,24.30
2019-04-06T11:03:08.564Z,22.85
2019-04-06T11:05:38.909Z,21.17
2019-04-06T11:08:24.351Z,21.62
2019-04-06T11:11:10.489Z,20.32
2019-04-06T11:13:40.853Z,20.43
2019-04-06T11:16:11.043Z,18.30
2019-04-06T11:18:56.562Z,18.77
2019-04-06T11:21:26.762Z,19.48
2019-04-06T11:23:59.791Z,19.87
2019-04-06T11:26:36.571Z,20.77
2019-04-06T11:29:12.321Z,19.90
2019-04-06T11:31:48.482Z,16.20
2019-04-06T11:34:24.844Z,15.03
2019-04-06T11:37:00.496Z,15.40
2019-04-06T11:39:33.480Z,14.93
2019-04-06T11:42:21.811Z,12.63
2019-04-06T11:44:55.075Z,12.03
2019-04-06T11:47:31.469Z,11.05
2019-04-06T11:50:13.894Z,11.53
2019-04-06T11:52:55.731Z,15.70
2019-04-06T11:55:26.332Z,12.30
2019-04-06T11:58:13.138Z,14.50
2019-04-06T12:00:59.022Z,11.22
2019-04-06T12:03:44.641Z,11.25
2019-04-06T12:06:14.807Z,13.08
2019-04-06T12:09:01.229Z,11.25
2019-04-06T12:11:34.491Z,10.93
2019-04-06T12:14:13.127Z,10.75
2019-04-06T12:16:49.191Z,10.50
2019-04-06T12:19:22.156Z,10.75
2019-04-06T12:22:07.359Z,8.43
2019-04-06T12:24:40.341Z,8.55
2019-04-06T12:27:19.199Z,9.58
2019-04-06T12:29:52.163Z,9.08
2019-04-06T12:32:31.323Z,9.98
2019-04-06T12:35:01.445Z,9.28
2019-04-06T12:37:43.786Z,10.17
2019-04-06T12:40:32.420Z,9.73
2019-04-06T12:43:19.056Z,8.80
2019-04-06T12:45:49.334Z,10.18
2019-04-06T12:48:25.733Z,9.15
2019-04-06T12:51:01.551Z,8.08
2019-04-06T12:53:31.824Z,8.88
2019-04-06T12:56:18.459Z,9.70
2019-04-06T12:58:48.768Z,11.45
2019-04-06T13:01:21.498Z,10.93
2019-04-06T13:03:57.821Z,7.90
2019-04-06T13:06:30.949Z,8.65
2019-04-06T13:09:07.202Z,7.90
2019-04-06T13:11:46.101Z,7.55
2019-04-06T13:14:28.632Z,8.03
2019-04-06T13:17:14.093Z,7.65
2019-04-06T13:20:00.422Z,8.25
2019-04-06T13:22:33.786Z,8.13
2019-04-06T13:25:22.227Z,7.37
2019-04-06T13:27:55.152Z,8.23
2019-04-06T13:30:41.997Z,8.18
2019-04-06T13:33:18.231Z,7.25
2019-04-06T13:35:51.565Z,7.20
2019-04-06T13:38:37.886Z,7.62
2019-04-06T13:41:13.896Z,7.37
2019-04-06T13:43:50.238Z,7.00
2019-04-06T13:46:29.393Z,10.23
2019-04-06T13:48:59.595Z,7.80
2019-04-06T13:51:46.303Z,8.48
2019-04-06T13:54:19.892Z,7.50
2019-04-06T13:57:06.508Z,8.80
2019-04-06T13:59:45.636Z,7.00
2019-04-06T14:02:31.257Z,8.28
2019-04-06T14:05:04.215Z,7.05
2019-04-06T14:07:50.901Z,7.37
2019-04-06T14:10:33.525Z,9.13
2019-04-06T14:13:20.420Z,8.95
2019-04-06T14:15:56.652Z,10.78
2019-04-06T14:18:26.940Z,10.00
2019-04-06T14:21:15.352Z,8.67
2019-04-06T14:24:03.827Z,9.30
2019-04-06T14:26:46.475Z,12.75
2019-04-06T14:29:19.258Z,8.35
2019-04-06T14:32:07.836Z,9.60
2019-04-06T14:34:40.827Z,7.83
2019-04-06T14:37:17.106Z,14.05
2019-04-06T14:39:50.617Z,9.45
2019-04-06T14:42:23.935Z,8.73
2019-04-06T14:45:10.304Z,9.70
2019-04-06T14:47:55.788Z,10.13
2019-04-06T14:50:26.313Z,11.43
2019-04-06T14:52:57.437Z,9.05
2019-04-06T14:55:41.477Z,9.78
2019-04-06T14:58:18.289Z,8.70
2019-04-06T15:00:51.163Z,10.53
2019-04-06T15:03:21.387Z,8.98
2019-04-06T15:05:54.333Z,8.60
2019-04-06T15:08:41.273Z,9.43
2019-04-06T15:11:23.029Z,8.75
2019-04-06T15:13:59.019Z,10.68
2019-04-06T15:16:38.461Z,10.15
2019-04-06T15:19:18.194Z,9.38
2019-04-06T15:21:51.811Z,10.48
2019-04-06T15:24:22.158Z,9.03
2019-04-06T15:27:01.443Z,9.48
2019-04-06T15:29:34.347Z,7.72
2019-04-06T15:32:22.796Z,8.73
2019-04-06T15:35:08.146Z,8.90
2019-04-06T15:37:47.204Z,9.45
2019-04-06T15:40:20.601Z,7.80
2019-04-06T15:42:59.511Z,8.78
2019-04-06T15:45:32.663Z,7.62
2019-04-06T15:48:08.754Z,7.87
2019-04-06T15:50:42.272Z,7.87
2019-04-06T15:53:28.540Z,10.05
2019-04-06T15:56:08.096Z,7.83
2019-04-06T15:58:40.973Z,9.13
2019-04-06T16:01:17.295Z,8.35
2019-04-06T16:03:59.905Z,9.28
2019-04-06T16:06:39.223Z,7.33
2019-04-06T16:09:09.552Z,7.75
2019-04-06T16:11:42.440Z,7.63
2019-04-06T16:14:28.575Z,8.53
2019-04-06T16:16:58.806Z,7.35
2019-04-06T16:19:35.044Z,8.10
2019-04-06T16:22:20.250Z,7.55
2019-04-06T16:24:50.468Z,9.78
2019-04-06T16:27:38.808Z,10.38
2019-04-06T16:30:10.881Z,8.43
2019-04-06T16:32:41.135Z,7.92
2019-04-06T16:35:13.938Z,7.60
2019-04-06T16:38:00.397Z,8.98
2019-04-06T16:40:36.571Z,8.30
2019-04-06T16:43:25.005Z,8.73
2019-04-06T16:46:03.886Z,9.38
2019-04-06T16:48:45.949Z,9.00
2019-04-06T16:51:16.542Z,9.03
2019-04-06T16:54:02.153Z,9.13
2019-04-06T16:56:44.796Z,9.20
2019-04-06T16:59:15.412Z,11.38
2019-04-06T17:01:45.873Z,11.55
2019-04-06T17:04:24.887Z,11.40
2019-04-06T17:07:00.989Z,10.38
2019-04-06T17:09:34.978Z,9.45
2019-04-06T17:12:06.330Z,10.98
2019-04-06T17:14:39.406Z,10.10
2019-04-06T17:17:26.160Z,10.50
2019-04-06T17:19:56.359Z,8.73
2019-04-06T17:22:27.071Z,10.35
2019-04-06T17:25:06.655Z,11.38
2019-04-06T17:27:42.959Z,11.78
2019-04-06T17:30:26.431Z,9.58
2019-04-06T17:33:02.082Z,9.85
2019-04-06T17:35:38.380Z,10.90
2019-04-06T17:38:26.461Z,12.85
2019-04-06T17:41:09.092Z,9.70
2019-04-06T17:43:41.943Z,11.33
2019-04-06T17:46:15.136Z,11.20
2019-04-06T17:48:45.530Z,11.93
2019-04-06T17:51:15.761Z,13.85
2019-04-06T17:53:48.450Z,18.92
2019-04-06T17:56:25.011Z,17.32
2019-04-06T17:59:04.166Z,20.15
2019-04-06T18:01:34.418Z,24.95
2019-04-06T18:04:10.556Z,24.90
2019-04-06T18:06:52.372Z,25.23
2019-04-06T18:09:22.578Z,23.75
2019-04-06T18:11:52.925Z,22.80
2019-04-06T18:14:21.845Z,23.47
2019-04-06T18:16:50.701Z,22.05
2019-04-06T18:19:19.369Z,27.30
2019-04-06T18:21:48.137Z,22.58
2019-04-06T18:24:16.948Z,23.45
2019-04-06T18:26:45.627Z,22.45
2019-04-06T18:29:14.261Z,23.42
2019-04-06T18:31:50.343Z,22.42
2019-04-06T18:34:18.934Z,23.02
2019-04-06T18:36:52.306Z,22.45
2019-04-06T18:39:22.495Z,21.00
2019-04-06T18:41:51.273Z,24.60
2019-04-06T18:44:19.844Z,22.98
2019-04-06T18:46:48.433Z,24.50
2019-04-06T18:49:16.992Z,23.25
2019-04-06T18:51:45.803Z,22.32
2019-04-06T18:54:14.384Z,20.17
2019-04-06T18:56:43.930Z,20.45
2019-04-06T18:59:12.968Z,20.52
2019-04-06T19:01:41.676Z,20.23
2019-04-06T19:04:10.488Z,22.80
2019-04-06T19:06:39.558Z,20.12
2019-04-06T19:09:20.729Z,18.80
2019-04-06T19:11:40.811Z,21.25
2019-04-06T19:14:10.202Z,19.23
2019-04-06T19:16:38.876Z,20.62
2019-04-06T19:19:07.815Z,22.30
2019-04-06T19:21:36.504Z,20.82
2019-04-06T19:24:05.518Z,17.92
2019-04-06T19:26:34.147Z,22.50
2019-04-06T19:29:02.818Z,20.75
2019-04-06T19:31:31.714Z,19.82
2019-04-06T19:34:00.545Z,19.75
2019-04-06T19:36:29.448Z,19.37
2019-04-06T19:38:58.168Z,21.02
2019-04-06T19:41:27.118Z,19.55
2019-04-06T19:43:55.800Z,22.77
2019-04-06T19:46:24.741Z,19.30
2019-04-06T19:48:53.409Z,19.73
2019-04-06T19:51:22.580Z,19.57
2019-04-06T19:53:51.257Z,18.40
2019-04-06T19:56:20.115Z,18.85
2019-04-06T19:58:49.261Z,20.60
2019-04-06T20:01:17.869Z,20.65
2019-04-06T20:03:46.547Z,19.45
2019-04-06T20:06:15.542Z,18.50
2019-04-06T20:08:44.217Z,19.23
2019-04-06T20:11:12.973Z,20.23
2019-04-06T20:13:41.619Z,19.65
2019-04-06T20:16:10.281Z,20.30
2019-04-06T20:18:38.987Z,20.95
2019-04-06T20:21:07.954Z,21.12
2019-04-06T20:23:36.463Z,26.42
2019-04-06T20:26:05.744Z,20.95
2019-04-06T20:28:35.368Z,20.82
2019-04-06T20:31:04.060Z,20.32
2019-04-06T20:33:32.647Z,22.17
2019-04-06T20:36:01.279Z,19.65
2019-04-06T20:38:29.959Z,21.60
2019-04-06T20:40:58.549Z,21.75
2019-04-06T20:43:27.582Z,22.73
2019-04-06T20:45:57.533Z,22.55
2019-04-06T20:48:26.283Z,23.18
2019-04-06T20:50:55.115Z,23.50
2019-04-06T20:53:24.126Z,29.30
2019-04-06T20:55:52.756Z,24.90
2019-04-06T20:58:21.381Z,25.32
2019-04-06T21:00:50.514Z,26.40
2019-04-06T21:03:19.252Z,25.77
2019-04-06T21:05:47.981Z,24.05
2019-04-06T21:08:17.144Z,24.52
2019-04-06T21:10:45.866Z,26.87
2019-04-06T21:13:14.426Z,27.95
2019-04-06T21:15:43.584Z,24.63
2019-04-06T21:18:12.430Z,25.12
2019-04-06T21:20:40.929Z,26.50
2019-04-06T21:23:09.781Z,29.20
2019-04-06T21:25:38.805Z,29.18
2019-04-06T21:28:07.761Z,31.77
2019-04-06T21:30:36.783Z,28.98
2019-04-06T21:33:05.485Z,28.87
2019-04-06T21:35:34.528Z,34.23
2019-04-06T21:38:03.044Z,29.95
2019-04-06T21:40:31.707Z,29.80
2019-04-06T21:43:00.388Z,30.32
2019-04-06T21:45:29.859Z,26.93
2019-04-06T21:47:58.583Z,26.65
2019-04-06T21:50:27.541Z,27.25
2019-04-06T21:52:57.597Z,32.98
2019-04-06T21:55:26.387Z,31.50
2019-04-06T21:57:55.349Z,31.05
2019-04-06T22:00:42.744Z,29.65
2019-04-06T22:03:11.385Z,29.30
2019-04-06T22:05:40.038Z,29.07
2019-04-06T22:08:09.338Z,30.05
2019-04-06T22:10:38.181Z,32.88
2019-04-06T22:13:07.270Z,29.85
2019-04-06T22:15:36.141Z,30.77
2019-04-06T22:18:06.126Z,30.68
2019-04-06T22:20:35.544Z,29.67
2019-04-06T22:23:05.104Z,30.62
2019-04-06T22:25:33.744Z,30.75
2019-04-06T22:28:02.802Z,30.30
2019-04-06T22:30:32.570Z,35.92
2019-04-06T22:33:01.830Z,33.23
2019-04-06T22:35:30.545Z,30.00
2019-04-06T22:37:59.232Z,30.37
2019-04-06T22:40:28.180Z,30.70
2019-04-06T22:42:57.293Z,28.27
2019-04-06T22:45:28.264Z,36.03
2019-04-06T22:47:56.856Z,34.23
2019-04-06T22:50:25.810Z,32.83
2019-04-06T22:52:54.671Z,30.75
2019-04-06T22:55:23.289Z,31.85
2019-04-06T22:57:52.079Z,28.87
2019-04-06T23:00:37.484Z,30.50
2019-04-06T23:03:24.146Z,34.70
2019-04-06T23:05:54.281Z,34.73
2019-04-06T23:08:23.490Z,32.15
2019-04-06T23:10:52.233Z,29.27
2019-04-06T23:13:21.410Z,33.48
2019-04-06T23:15:50.827Z,31.87
2019-04-06T23:18:19.654Z,33.63
2019-04-06T23:20:48.408Z,35.85
2019-04-06T23:23:17.637Z,37.40
2019-04-06T23:25:46.969Z,31.42
2019-04-06T23:28:15.939Z,33.80
2019-04-06T23:30:45.300Z,30.68
2019-04-06T23:33:14.310Z,33.60
2019-04-06T23:35:43.040Z,32.08
2019-04-06T23:38:12.273Z,34.13
2019-04-06T23:40:40.961Z,27.37
2019-04-06T23:43:09.714Z,29.67
2019-04-06T23:45:39.395Z,32.63
2019-04-06T23:48:08.088Z,32.30
2019-04-06T23:50:36.602Z,31.68
2019-04-06T23:53:05.258Z,30.80
2019-04-06T23:55:33.944Z,29.57
2019-04-06T23:58:02.869Z,31.57
